This is the latest recevied weather packets stored in our database for station/object ESUT. If no packets are shown the sender has not sent any weather packets the latest 1 day(s).
| Time | Temp. | Humidity | Pressure | Rain* | Wind** | Luminosity | Snow |
|---|---|---|---|---|---|---|---|
| 1778005986 | 0° C | 74% | 1002 hPa | - | 2.24 m/s, 280° | - | - |
| 1778004187 | 0.56° C | 69% | 1002 hPa | - | 3.13 m/s, 320° | - | - |
| 1778002387 | 0.56° C | 64% | 1002 hPa | - | 3.13 m/s, 280° | - | - |
| 1778000587 | 1.67° C | 59% | 1001 hPa | - | 4.02 m/s, 320° | - | - |
| 1777998787 | 1.67° C | 55% | 1001 hPa | - | 5.36 m/s, 310° | - | - |
| 1777996987 | 1.67° C | 59% | 1001 hPa | - | 6.26 m/s, 310° | - | - |
| 1777995187 | 1.67° C | 64% | 1001 hPa | - | 4.02 m/s, 320° | - | - |
| 1777993386 | 1.67° C | 69% | 1002 hPa | - | 5.36 m/s, 320° | - | - |
| 1777991587 | 1.67° C | 64% | 1001 hPa | - | 5.36 m/s, 280° | - | - |
| 1777989787 | 1.67° C | 64% | 1001 hPa | - | 6.26 m/s, 310° | - | - |
| 1777987987 | 2.78° C | 59% | 1001 hPa | - | 5.81 m/s, 300° | - | - |
| 1777986187 | 1.67° C | 59% | 1001 hPa | - | 6.26 m/s, 300° | - | - |
| 1777984386 | 1.67° C | 74% | 1001 hPa | - | 5.36 m/s, 310° | - | - |
| 1777982586 | 1.67° C | 59% | 1000 hPa | - | 6.26 m/s, 300° | - | - |
| 1777980787 | 1.67° C | 64% | 1000 hPa | - | 6.26 m/s, 280° | - | - |
| 1777978987 | 1.67° C | 64% | 1000 hPa | - | 6.26 m/s, 300° | - | - |
| 1777977186 | 0.56° C | 59% | 1000 hPa | - | 5.81 m/s, 300° | - | - |
| 1777975387 | 0.56° C | 64% | 1000 hPa | - | 5.36 m/s, 300° | - | - |
| 1777973586 | 0.56° C | 69% | 999 hPa | - | 5.81 m/s, 310° | - | - |
| 1777971787 | -1.11° C | 92% | 999 hPa | - | 4.47 m/s, 300° | - | - |
| 1777969986 | 0° C | 69% | 999 hPa | - | 6.26 m/s, 300° | - | - |
| 1777968187 | 0° C | 69% | 999 hPa | - | 5.36 m/s, 320° | - | - |
| 1777966386 | 0.56° C | 64% | 999 hPa | - | 6.71 m/s, 300° | - | - |
* Rain since midnight (hover to see other rain measurements)
** Current wind speed in m/s (hover to see current wind gust speed)